sensor_id;sensor_type;location;lat;lon;timestamp;temperature;humidity
13721;DHT22;6932;51.438;5.470;2023-02-01T00:00:12;13.30;84.60
13721;DHT22;6932;51.438;5.470;2023-02-01T00:02:38;13.30;84.40
13721;DHT22;6932;51.438;5.470;2023-02-01T00:05:09;13.30;84.30
13721;DHT22;6932;51.438;5.470;2023-02-01T00:07:36;13.30;84.10
13721;DHT22;6932;51.438;5.470;2023-02-01T00:10:04;13.30;83.90
13721;DHT22;6932;51.438;5.470;2023-02-01T00:12:32;13.20;83.70
13721;DHT22;6932;51.438;5.470;2023-02-01T00:14:57;13.20;83.50
13721;DHT22;6932;51.438;5.470;2023-02-01T00:17:24;13.20;83.40
13721;DHT22;6932;51.438;5.470;2023-02-01T00:19:50;13.20;83.20
13721;DHT22;6932;51.438;5.470;2023-02-01T00:22:16;13.20;83.10
13721;DHT22;6932;51.438;5.470;2023-02-01T00:24:42;13.10;82.80
13721;DHT22;6932;51.438;5.470;2023-02-01T00:27:08;13.10;82.70
13721;DHT22;6932;51.438;5.470;2023-02-01T00:29:33;13.10;82.50
13721;DHT22;6932;51.438;5.470;2023-02-01T00:31:59;13.10;82.40
13721;DHT22;6932;51.438;5.470;2023-02-01T00:34:25;13.10;82.30
13721;DHT22;6932;51.438;5.470;2023-02-01T00:36:50;13.10;82.20
13721;DHT22;6932;51.438;5.470;2023-02-01T00:39:16;13.10;82.10
13721;DHT22;6932;51.438;5.470;2023-02-01T00:41:42;13.00;81.90
13721;DHT22;6932;51.438;5.470;2023-02-01T00:44:08;13.00;81.70
13721;DHT22;6932;51.438;5.470;2023-02-01T00:46:35;13.00;81.60
13721;DHT22;6932;51.438;5.470;2023-02-01T00:49:01;13.00;81.50
13721;DHT22;6932;51.438;5.470;2023-02-01T00:51:28;13.00;81.40
13721;DHT22;6932;51.438;5.470;2023-02-01T00:53:55;13.00;81.30
13721;DHT22;6932;51.438;5.470;2023-02-01T00:56:21;12.90;81.20
13721;DHT22;6932;51.438;5.470;2023-02-01T00:58:47;12.90;81.20
13721;DHT22;6932;51.438;5.470;2023-02-01T01:01:17;12.90;81.10
13721;DHT22;6932;51.438;5.470;2023-02-01T01:03:51;12.90;81.00
13721;DHT22;6932;51.438;5.470;2023-02-01T01:06:27;12.90;81.00
13721;DHT22;6932;51.438;5.470;2023-02-01T01:08:56;12.90;80.80
13721;DHT22;6932;51.438;5.470;2023-02-01T01:11:26;12.90;80.80
13721;DHT22;6932;51.438;5.470;2023-02-01T01:13:57;12.90;80.70
13721;DHT22;6932;51.438;5.470;2023-02-01T01:16:26;12.90;80.60
13721;DHT22;6932;51.438;5.470;2023-02-01T01:18:54;12.80;80.60
13721;DHT22;6932;51.438;5.470;2023-02-01T01:21:20;12.80;80.60
13721;DHT22;6932;51.438;5.470;2023-02-01T01:23:46;12.80;80.60
13721;DHT22;6932;51.438;5.470;2023-02-01T01:26:15;12.80;80.60
13721;DHT22;6932;51.438;5.470;2023-02-01T01:28:43;12.80;80.60
13721;DHT22;6932;51.438;5.470;2023-02-01T01:31:14;12.80;80.60
13721;DHT22;6932;51.438;5.470;2023-02-01T01:33:41;12.70;80.50
13721;DHT22;6932;51.438;5.470;2023-02-01T01:36:10;12.70;80.60
13721;DHT22;6932;51.438;5.470;2023-02-01T01:38:37;12.70;80.60
13721;DHT22;6932;51.438;5.470;2023-02-01T01:41:04;12.70;80.60
13721;DHT22;6932;51.438;5.470;2023-02-01T01:46:35;12.70;80.60
13721;DHT22;6932;51.438;5.470;2023-02-01T01:49:18;12.70;80.60
13721;DHT22;6932;51.438;5.470;2023-02-01T01:51:53;12.60;80.60
13721;DHT22;6932;51.438;5.470;2023-02-01T01:54:30;12.60;80.70
13721;DHT22;6932;51.438;5.470;2023-02-01T01:57:03;12.60;80.80
13721;DHT22;6932;51.438;5.470;2023-02-01T01:59:38;12.60;80.90
13721;DHT22;6932;51.438;5.470;2023-02-01T02:02:06;12.60;81.00
13721;DHT22;6932;51.438;5.470;2023-02-01T02:04:33;12.60;81.00
13721;DHT22;6932;51.438;5.470;2023-02-01T02:07:14;12.60;81.10
13721;DHT22;6932;51.438;5.470;2023-02-01T02:09:44;12.60;81.20
13721;DHT22;6932;51.438;5.470;2023-02-01T02:12:10;12.60;81.30
13721;DHT22;6932;51.438;5.470;2023-02-01T02:14:36;12.60;81.30
13721;DHT22;6932;51.438;5.470;2023-02-01T02:25:46;12.50;81.50
13721;DHT22;6932;51.438;5.470;2023-02-01T02:35:24;12.50;81.80
13721;DHT22;6932;51.438;5.470;2023-02-01T02:38:32;12.50;82.00
13721;DHT22;6932;51.438;5.470;2023-02-01T02:41:18;12.50;82.10
13721;DHT22;6932;51.438;5.470;2023-02-01T02:44:34;12.50;82.20
13721;DHT22;6932;51.438;5.470;2023-02-01T02:47:41;12.50;82.30
13721;DHT22;6932;51.438;5.470;2023-02-01T02:50:21;12.50;82.40
13721;DHT22;6932;51.438;5.470;2023-02-01T02:56:15;12.50;82.50
13721;DHT22;6932;51.438;5.470;2023-02-01T02:59:02;12.50;82.50
13721;DHT22;6932;51.438;5.470;2023-02-01T03:01:49;12.50;82.50
13721;DHT22;6932;51.438;5.470;2023-02-01T03:04:33;12.50;82.50
13721;DHT22;6932;51.438;5.470;2023-02-01T03:07:15;12.50;82.50
13721;DHT22;6932;51.438;5.470;2023-02-01T03:13:20;12.50;82.50
13721;DHT22;6932;51.438;5.470;2023-02-01T03:15:57;12.60;82.50
13721;DHT22;6932;51.438;5.470;2023-02-01T03:18:29;12.60;82.50
13721;DHT22;6932;51.438;5.470;2023-02-01T03:22:03;12.60;82.60
13721;DHT22;6932;51.438;5.470;2023-02-01T03:24:23;12.60;82.50
13721;DHT22;6932;51.438;5.470;2023-02-01T03:27:11;12.60;82.40
13721;DHT22;6932;51.438;5.470;2023-02-01T03:30:08;12.60;82.40
13721;DHT22;6932;51.438;5.470;2023-02-01T03:32:45;12.60;82.30
13721;DHT22;6932;51.438;5.470;2023-02-01T03:38:28;12.60;82.30
13721;DHT22;6932;51.438;5.470;2023-02-01T03:41:17;12.50;82.40
13721;DHT22;6932;51.438;5.470;2023-02-01T03:46:52;12.50;82.40
13721;DHT22;6932;51.438;5.470;2023-02-01T03:49:43;12.50;82.50
13721;DHT22;6932;51.438;5.470;2023-02-01T03:52:16;12.50;82.50
13721;DHT22;6932;51.438;5.470;2023-02-01T03:54:47;12.50;82.50
13721;DHT22;6932;51.438;5.470;2023-02-01T03:57:20;12.50;82.50
13721;DHT22;6932;51.438;5.470;2023-02-01T03:59:51;12.50;82.50
13721;DHT22;6932;51.438;5.470;2023-02-01T04:02:17;12.50;82.50
13721;DHT22;6932;51.438;5.470;2023-02-01T04:04:43;12.50;83.20
13721;DHT22;6932;51.438;5.470;2023-02-01T04:07:08;12.50;82.60
13721;DHT22;6932;51.438;5.470;2023-02-01T04:09:34;12.50;82.60
13721;DHT22;6932;51.438;5.470;2023-02-01T04:12:00;12.50;82.60
13721;DHT22;6932;51.438;5.470;2023-02-01T04:14:26;12.50;82.60
13721;DHT22;6932;51.438;5.470;2023-02-01T04:16:52;12.50;82.60
13721;DHT22;6932;51.438;5.470;2023-02-01T04:19:18;12.50;82.60
13721;DHT22;6932;51.438;5.470;2023-02-01T04:21:44;12.60;82.60
13721;DHT22;6932;51.438;5.470;2023-02-01T04:24:10;12.50;82.60
13721;DHT22;6932;51.438;5.470;2023-02-01T04:26:36;12.60;82.60
13721;DHT22;6932;51.438;5.470;2023-02-01T04:29:02;12.50;82.60
13721;DHT22;6932;51.438;5.470;2023-02-01T04:31:27;12.60;82.70
13721;DHT22;6932;51.438;5.470;2023-02-01T04:33:55;12.60;82.70
13721;DHT22;6932;51.438;5.470;2023-02-01T04:36:23;12.60;82.70
13721;DHT22;6932;51.438;5.470;2023-02-01T04:38:49;12.60;82.70
13721;DHT22;6932;51.438;5.470;2023-02-01T04:41:16;12.60;82.70
13721;DHT22;6932;51.438;5.470;2023-02-01T04:43:48;12.60;82.70
13721;DHT22;6932;51.438;5.470;2023-02-01T04:46:16;12.60;82.70
13721;DHT22;6932;51.438;5.470;2023-02-01T04:48:42;12.60;82.80
13721;DHT22;6932;51.438;5.470;2023-02-01T04:51:08;12.60;82.80
13721;DHT22;6932;51.438;5.470;2023-02-01T04:53:35;12.60;82.80
13721;DHT22;6932;51.438;5.470;2023-02-01T04:56:01;12.60;82.80
13721;DHT22;6932;51.438;5.470;2023-02-01T04:58:27;12.60;82.80
13721;DHT22;6932;51.438;5.470;2023-02-01T05:00:53;12.60;82.80
13721;DHT22;6932;51.438;5.470;2023-02-01T05:03:19;12.60;82.70
13721;DHT22;6932;51.438;5.470;2023-02-01T05:05:47;12.50;82.60
13721;DHT22;6932;51.438;5.470;2023-02-01T05:08:14;12.50;82.60
13721;DHT22;6932;51.438;5.470;2023-02-01T05:10:39;12.50;82.50
13721;DHT22;6932;51.438;5.470;2023-02-01T05:13:05;12.50;82.50
13721;DHT22;6932;51.438;5.470;2023-02-01T05:15:50;12.50;82.60
13721;DHT22;6932;51.438;5.470;2023-02-01T05:18:16;12.50;82.50
13721;DHT22;6932;51.438;5.470;2023-02-01T05:20:42;12.40;82.40
13721;DHT22;6932;51.438;5.470;2023-02-01T05:23:08;12.40;82.50
13721;DHT22;6932;51.438;5.470;2023-02-01T05:25:34;12.40;82.50
13721;DHT22;6932;51.438;5.470;2023-02-01T05:27:59;12.40;83.20
13721;DHT22;6932;51.438;5.470;2023-02-01T05:30:25;12.40;82.60
13721;DHT22;6932;51.438;5.470;2023-02-01T05:32:52;12.30;82.60
13721;DHT22;6932;51.438;5.470;2023-02-01T05:35:18;12.30;82.70
13721;DHT22;6932;51.438;5.470;2023-02-01T05:37:44;12.30;82.80
13721;DHT22;6932;51.438;5.470;2023-02-01T05:40:11;12.30;82.90
13721;DHT22;6932;51.438;5.470;2023-02-01T05:42:37;12.30;83.00
13721;DHT22;6932;51.438;5.470;2023-02-01T05:45:03;12.30;83.10
13721;DHT22;6932;51.438;5.470;2023-02-01T05:47:30;12.30;83.10
13721;DHT22;6932;51.438;5.470;2023-02-01T05:49:56;12.30;83.20
13721;DHT22;6932;51.438;5.470;2023-02-01T05:52:22;12.30;83.20
13721;DHT22;6932;51.438;5.470;2023-02-01T05:54:48;12.40;83.30
13721;DHT22;6932;51.438;5.470;2023-02-01T05:57:15;12.40;83.30
13721;DHT22;6932;51.438;5.470;2023-02-01T05:59:41;12.40;83.40
13721;DHT22;6932;51.438;5.470;2023-02-01T06:02:11;12.40;84.00
13721;DHT22;6932;51.438;5.470;2023-02-01T06:04:37;12.40;83.40
13721;DHT22;6932;51.438;5.470;2023-02-01T06:07:04;12.40;83.40
13721;DHT22;6932;51.438;5.470;2023-02-01T06:09:33;12.40;83.50
13721;DHT22;6932;51.438;5.470;2023-02-01T06:11:59;12.40;83.50
13721;DHT22;6932;51.438;5.470;2023-02-01T06:14:26;12.50;83.60
13721;DHT22;6932;51.438;5.470;2023-02-01T06:16:56;12.50;83.60
13721;DHT22;6932;51.438;5.470;2023-02-01T06:19:22;12.50;83.50
13721;DHT22;6932;51.438;5.470;2023-02-01T06:21:49;12.50;83.60
13721;DHT22;6932;51.438;5.470;2023-02-01T06:24:15;12.50;83.50
13721;DHT22;6932;51.438;5.470;2023-02-01T06:26:40;12.50;83.50
13721;DHT22;6932;51.438;5.470;2023-02-01T06:29:09;12.60;83.60
13721;DHT22;6932;51.438;5.470;2023-02-01T06:31:35;12.60;83.60
13721;DHT22;6932;51.438;5.470;2023-02-01T06:34:01;12.60;83.60
13721;DHT22;6932;51.438;5.470;2023-02-01T06:36:29;12.60;83.60
13721;DHT22;6932;51.438;5.470;2023-02-01T06:38:55;12.60;83.60
13721;DHT22;6932;51.438;5.470;2023-02-01T06:41:22;12.60;83.60
13721;DHT22;6932;51.438;5.470;2023-02-01T06:43:49;12.60;83.60
13721;DHT22;6932;51.438;5.470;2023-02-01T06:46:14;12.60;83.60
13721;DHT22;6932;51.438;5.470;2023-02-01T06:48:40;12.60;83.60
13721;DHT22;6932;51.438;5.470;2023-02-01T06:51:15;12.60;83.60
13721;DHT22;6932;51.438;5.470;2023-02-01T06:53:44;12.60;83.60
13721;DHT22;6932;51.438;5.470;2023-02-01T06:56:10;12.60;83.60
13721;DHT22;6932;51.438;5.470;2023-02-01T06:58:36;12.60;83.60
13721;DHT22;6932;51.438;5.470;2023-02-01T07:01:05;12.60;83.70
13721;DHT22;6932;51.438;5.470;2023-02-01T07:03:32;12.60;83.80
13721;DHT22;6932;51.438;5.470;2023-02-01T07:05:57;12.60;83.80
13721;DHT22;6932;51.438;5.470;2023-02-01T07:08:30;12.60;83.80
13721;DHT22;6932;51.438;5.470;2023-02-01T07:11:02;12.60;83.90
13721;DHT22;6932;51.438;5.470;2023-02-01T07:13:29;12.60;83.90
13721;DHT22;6932;51.438;5.470;2023-02-01T07:15:58;12.60;83.90
13721;DHT22;6932;51.438;5.470;2023-02-01T07:18:28;12.60;83.80
13721;DHT22;6932;51.438;5.470;2023-02-01T07:20:55;12.60;83.90
13721;DHT22;6932;51.438;5.470;2023-02-01T07:23:21;12.60;83.90
13721;DHT22;6932;51.438;5.470;2023-02-01T07:25:48;12.70;84.00
13721;DHT22;6932;51.438;5.470;2023-02-01T07:28:14;12.60;83.90
13721;DHT22;6932;51.438;5.470;2023-02-01T07:30:40;12.70;84.00
13721;DHT22;6932;51.438;5.470;2023-02-01T07:33:07;12.70;84.00
13721;DHT22;6932;51.438;5.470;2023-02-01T07:35:32;12.70;84.00
13721;DHT22;6932;51.438;5.470;2023-02-01T07:37:58;12.70;84.00
13721;DHT22;6932;51.438;5.470;2023-02-01T07:40:24;12.70;84.00
13721;DHT22;6932;51.438;5.470;2023-02-01T07:42:54;12.70;83.90
13721;DHT22;6932;51.438;5.470;2023-02-01T07:45:22;12.70;84.50
13721;DHT22;6932;51.438;5.470;2023-02-01T07:47:48;12.70;83.80
13721;DHT22;6932;51.438;5.470;2023-02-01T07:50:14;12.70;83.80
13721;DHT22;6932;51.438;5.470;2023-02-01T07:52:40;12.70;83.80
13721;DHT22;6932;51.438;5.470;2023-02-01T07:55:07;12.70;83.80
13721;DHT22;6932;51.438;5.470;2023-02-01T07:57:33;12.70;83.70
13721;DHT22;6932;51.438;5.470;2023-02-01T07:59:58;12.70;83.70
13721;DHT22;6932;51.438;5.470;2023-02-01T08:03:00;12.60;83.60
13721;DHT22;6932;51.438;5.470;2023-02-01T08:05:26;12.60;83.50
13721;DHT22;6932;51.438;5.470;2023-02-01T08:07:52;12.60;84.20
13721;DHT22;6932;51.438;5.470;2023-02-01T08:10:19;12.60;83.60
13721;DHT22;6932;51.438;5.470;2023-02-01T08:12:45;12.60;83.80
13721;DHT22;6932;51.438;5.470;2023-02-01T08:15:17;12.60;84.00
13721;DHT22;6932;51.438;5.470;2023-02-01T08:17:50;12.60;84.00
13721;DHT22;6932;51.438;5.470;2023-02-01T08:20:18;12.60;84.00
13721;DHT22;6932;51.438;5.470;2023-02-01T08:22:44;12.70;84.30
13721;DHT22;6932;51.438;5.470;2023-02-01T08:25:10;12.70;84.40
13721;DHT22;6932;51.438;5.470;2023-02-01T08:27:37;12.70;84.40
13721;DHT22;6932;51.438;5.470;2023-02-01T08:30:04;12.70;84.30
13721;DHT22;6932;51.438;5.470;2023-02-01T08:32:33;12.80;84.40
13721;DHT22;6932;51.438;5.470;2023-02-01T08:34:59;12.80;84.40
13721;DHT22;6932;51.438;5.470;2023-02-01T08:37:24;12.90;84.40
13721;DHT22;6932;51.438;5.470;2023-02-01T08:39:50;12.90;84.40
13721;DHT22;6932;51.438;5.470;2023-02-01T08:42:16;13.00;84.50
13721;DHT22;6932;51.438;5.470;2023-02-01T08:45:02;13.00;84.50
13721;DHT22;6932;51.438;5.470;2023-02-01T08:47:29;13.10;84.40
13721;DHT22;6932;51.438;5.470;2023-02-01T08:49:56;13.20;84.40
13721;DHT22;6932;51.438;5.470;2023-02-01T08:52:22;13.20;84.10
13721;DHT22;6932;51.438;5.470;2023-02-01T08:54:48;13.30;83.90
13721;DHT22;6932;51.438;5.470;2023-02-01T08:57:14;13.30;83.70
13721;DHT22;6932;51.438;5.470;2023-02-01T08:59:40;13.40;83.50
13721;DHT22;6932;51.438;5.470;2023-02-01T09:02:08;13.40;83.40
13721;DHT22;6932;51.438;5.470;2023-02-01T09:04:41;13.40;83.40
13721;DHT22;6932;51.438;5.470;2023-02-01T09:07:11;13.50;83.40
13721;DHT22;6932;51.438;5.470;2023-02-01T09:09:38;13.40;83.30
13721;DHT22;6932;51.438;5.470;2023-02-01T09:12:04;13.50;83.40
13721;DHT22;6932;51.438;5.470;2023-02-01T09:14:31;13.50;83.40
13721;DHT22;6932;51.438;5.470;2023-02-01T09:16:56;13.50;83.50
13721;DHT22;6932;51.438;5.470;2023-02-01T09:19:22;13.50;83.60
13721;DHT22;6932;51.438;5.470;2023-02-01T09:21:48;13.50;83.60
13721;DHT22;6932;51.438;5.470;2023-02-01T09:24:14;13.60;83.80
13721;DHT22;6932;51.438;5.470;2023-02-01T09:26:39;13.60;84.00
13721;DHT22;6932;51.438;5.470;2023-02-01T09:29:06;13.70;84.30
13721;DHT22;6932;51.438;5.470;2023-02-01T09:31:38;13.70;84.20
13721;DHT22;6932;51.438;5.470;2023-02-01T09:34:05;13.80;84.20
13721;DHT22;6932;51.438;5.470;2023-02-01T09:36:32;13.90;84.10
13721;DHT22;6932;51.438;5.470;2023-02-01T09:38:59;14.00;83.90
13721;DHT22;6932;51.438;5.470;2023-02-01T09:47:32;14.30;82.90
13721;DHT22;6932;51.438;5.470;2023-02-01T09:50:16;14.40;82.60
13721;DHT22;6932;51.438;5.470;2023-02-01T09:55:47;14.50;82.00
13721;DHT22;6932;51.438;5.470;2023-02-01T10:01:23;14.50;81.40
13721;DHT22;6932;51.438;5.470;2023-02-01T10:04:03;14.60;81.30
13721;DHT22;6932;51.438;5.470;2023-02-01T10:07:04;14.60;81.30
13721;DHT22;6932;51.438;5.470;2023-02-01T10:10:00;14.50;81.50
13721;DHT22;6932;51.438;5.470;2023-02-01T10:12:40;14.60;81.40
13721;DHT22;6932;51.438;5.470;2023-02-01T10:15:17;14.60;81.60
13721;DHT22;6932;51.438;5.470;2023-02-01T10:17:56;14.70;81.70
13721;DHT22;6932;51.438;5.470;2023-02-01T10:28:56;15.00;80.80
13721;DHT22;6932;51.438;5.470;2023-02-01T10:31:35;14.90;79.70
13721;DHT22;6932;51.438;5.470;2023-02-01T10:39:48;14.80;79.20
13721;DHT22;6932;51.438;5.470;2023-02-01T10:42:24;14.70;79.40
13721;DHT22;6932;51.438;5.470;2023-02-01T10:44:58;14.60;79.70
13721;DHT22;6932;51.438;5.470;2023-02-01T10:47:27;14.60;79.90
13721;DHT22;6932;51.438;5.470;2023-02-01T10:50:02;14.70;80.10
13721;DHT22;6932;51.438;5.470;2023-02-01T10:58:31;14.80;79.80
13721;DHT22;6932;51.438;5.470;2023-02-01T11:01:25;14.90;79.60
13721;DHT22;6932;51.438;5.470;2023-02-01T11:04:00;14.90;79.40
13721;DHT22;6932;51.438;5.470;2023-02-01T11:06:42;14.90;79.40
13721;DHT22;6932;51.438;5.470;2023-02-01T11:09:18;14.90;79.30
13721;DHT22;6932;51.438;5.470;2023-02-01T11:19:47;15.10;78.70
13721;DHT22;6932;51.438;5.470;2023-02-01T11:22:24;15.10;78.50
13721;DHT22;6932;51.438;5.470;2023-02-01T11:24:52;15.10;78.40
13721;DHT22;6932;51.438;5.470;2023-02-01T11:27:20;15.10;78.30
13721;DHT22;6932;51.438;5.470;2023-02-01T11:29:51;15.10;78.10
13721;DHT22;6932;51.438;5.470;2023-02-01T11:32:22;15.10;78.10
13721;DHT22;6932;51.438;5.470;2023-02-01T11:34:59;15.10;77.90
13721;DHT22;6932;51.438;5.470;2023-02-01T11:37:35;15.10;77.70
13721;DHT22;6932;51.438;5.470;2023-02-01T11:40:34;15.10;77.70
13721;DHT22;6932;51.438;5.470;2023-02-01T11:46:00;15.00;77.60
13721;DHT22;6932;51.438;5.470;2023-02-01T11:48:30;15.10;77.50
13721;DHT22;6932;51.438;5.470;2023-02-01T11:52:21;15.10;77.50
13721;DHT22;6932;51.438;5.470;2023-02-01T12:32:02;15.00;77.40
13721;DHT22;6932;51.438;5.470;2023-02-01T12:40:43;15.10;77.30
13721;DHT22;6932;51.438;5.470;2023-02-01T12:45:59;15.00;77.20
13721;DHT22;6932;51.438;5.470;2023-02-01T12:48:50;15.10;77.30
13721;DHT22;6932;51.438;5.470;2023-02-01T12:51:29;15.00;77.20
13721;DHT22;6932;51.438;5.470;2023-02-01T12:57:36;15.00;77.20
13721;DHT22;6932;51.438;5.470;2023-02-01T13:00:18;15.10;77.40
13721;DHT22;6932;51.438;5.470;2023-02-01T13:09:23;15.10;77.40
13721;DHT22;6932;51.438;5.470;2023-02-01T13:11:55;15.10;77.50
13721;DHT22;6932;51.438;5.470;2023-02-01T13:17:19;15.10;77.50
13721;DHT22;6932;51.438;5.470;2023-02-01T13:20:00;15.10;77.50
13721;DHT22;6932;51.438;5.470;2023-02-01T13:22:38;15.10;77.40
13721;DHT22;6932;51.438;5.470;2023-02-01T13:25:16;15.10;77.40
13721;DHT22;6932;51.438;5.470;2023-02-01T13:28:06;15.10;77.30
13721;DHT22;6932;51.438;5.470;2023-02-01T13:41:24;15.20;77.40
13721;DHT22;6932;51.438;5.470;2023-02-01T13:44:15;15.20;77.50
13721;DHT22;6932;51.438;5.470;2023-02-01T13:46:48;15.20;77.40
13721;DHT22;6932;51.438;5.470;2023-02-01T13:49:20;15.20;77.50
13721;DHT22;6932;51.438;5.470;2023-02-01T13:51:52;15.20;77.50
13721;DHT22;6932;51.438;5.470;2023-02-01T13:54:39;15.20;77.40
13721;DHT22;6932;51.438;5.470;2023-02-01T13:57:33;15.20;77.60
13721;DHT22;6932;51.438;5.470;2023-02-01T14:00:08;15.20;77.50
13721;DHT22;6932;51.438;5.470;2023-02-01T14:03:15;15.20;77.40
13721;DHT22;6932;51.438;5.470;2023-02-01T14:08:23;15.30;77.40
13721;DHT22;6932;51.438;5.470;2023-02-01T14:11:32;15.20;77.40
13721;DHT22;6932;51.438;5.470;2023-02-01T14:19:31;15.30;77.50
13721;DHT22;6932;51.438;5.470;2023-02-01T14:21:59;15.30;77.50
13721;DHT22;6932;51.438;5.470;2023-02-01T14:24:51;15.30;77.50
13721;DHT22;6932;51.438;5.470;2023-02-01T14:27:30;15.30;77.40
13721;DHT22;6932;51.438;5.470;2023-02-01T14:30:05;15.30;77.50
13721;DHT22;6932;51.438;5.470;2023-02-01T14:32:40;15.20;77.40
13721;DHT22;6932;51.438;5.470;2023-02-01T14:37:46;15.20;77.50
13721;DHT22;6932;51.438;5.470;2023-02-01T14:40:25;15.20;77.60
13721;DHT22;6932;51.438;5.470;2023-02-01T14:42:53;15.20;77.50
13721;DHT22;6932;51.438;5.470;2023-02-01T15:01:33;15.20;77.60
13721;DHT22;6932;51.438;5.470;2023-02-01T15:06:48;15.10;77.60
13721;DHT22;6932;51.438;5.470;2023-02-01T15:09:25;15.10;77.70
13721;DHT22;6932;51.438;5.470;2023-02-01T15:12:16;15.20;77.80
13721;DHT22;6932;51.438;5.470;2023-02-01T15:15:24;15.10;77.80
13721;DHT22;6932;51.438;5.470;2023-02-01T15:17:59;15.10;77.80
13721;DHT22;6932;51.438;5.470;2023-02-01T15:20:27;15.10;77.80
13721;DHT22;6932;51.438;5.470;2023-02-01T15:22:58;15.10;77.80
13721;DHT22;6932;51.438;5.470;2023-02-01T15:28:04;15.10;77.90
13721;DHT22;6932;51.438;5.470;2023-02-01T15:30:35;15.10;78.00
13721;DHT22;6932;51.438;5.470;2023-02-01T15:35:40;15.10;78.00
13721;DHT22;6932;51.438;5.470;2023-02-01T15:38:41;15.10;78.10
13721;DHT22;6932;51.438;5.470;2023-02-01T15:41:16;15.10;78.20
13721;DHT22;6932;51.438;5.470;2023-02-01T15:44:02;15.10;78.10
13721;DHT22;6932;51.438;5.470;2023-02-01T15:46:45;15.10;78.20
13721;DHT22;6932;51.438;5.470;2023-02-01T15:49:27;15.10;78.10
13721;DHT22;6932;51.438;5.470;2023-02-01T15:51:57;15.10;78.20
13721;DHT22;6932;51.438;5.470;2023-02-01T15:54:31;15.10;78.30
13721;DHT22;6932;51.438;5.470;2023-02-01T15:57:06;15.10;78.30
13721;DHT22;6932;51.438;5.470;2023-02-01T15:59:42;15.10;78.40
13721;DHT22;6932;51.438;5.470;2023-02-01T16:04:53;15.10;78.60
13721;DHT22;6932;51.438;5.470;2023-02-01T16:07:28;15.10;78.70
13721;DHT22;6932;51.438;5.470;2023-02-01T16:09:59;15.10;78.70
13721;DHT22;6932;51.438;5.470;2023-02-01T16:15:04;15.10;78.90
13721;DHT22;6932;51.438;5.470;2023-02-01T16:17:31;15.10;78.90
13721;DHT22;6932;51.438;5.470;2023-02-01T16:19:57;15.10;79.00
13721;DHT22;6932;51.438;5.470;2023-02-01T16:22:23;15.00;79.00
13721;DHT22;6932;51.438;5.470;2023-02-01T16:24:49;15.00;79.00
13721;DHT22;6932;51.438;5.470;2023-02-01T16:27:15;15.00;79.10
13721;DHT22;6932;51.438;5.470;2023-02-01T16:29:41;15.00;79.10
13721;DHT22;6932;51.438;5.470;2023-02-01T16:32:16;15.00;79.10
13721;DHT22;6932;51.438;5.470;2023-02-01T16:34:44;15.00;79.10
13721;DHT22;6932;51.438;5.470;2023-02-01T16:37:22;15.00;79.10
13721;DHT22;6932;51.438;5.470;2023-02-01T16:39:49;15.00;79.10
13721;DHT22;6932;51.438;5.470;2023-02-01T16:42:16;15.00;79.20
13721;DHT22;6932;51.438;5.470;2023-02-01T16:44:43;15.00;79.20
13721;DHT22;6932;51.438;5.470;2023-02-01T16:47:16;14.90;79.20
13721;DHT22;6932;51.438;5.470;2023-02-01T16:49:44;14.90;79.20
13721;DHT22;6932;51.438;5.470;2023-02-01T16:52:17;14.90;79.20
13721;DHT22;6932;51.438;5.470;2023-02-01T16:54:45;14.90;79.20
13721;DHT22;6932;51.438;5.470;2023-02-01T16:57:12;14.90;79.30
13721;DHT22;6932;51.438;5.470;2023-02-01T16:59:40;14.90;79.30
13721;DHT22;6932;51.438;5.470;2023-02-01T17:02:12;14.90;79.30
13721;DHT22;6932;51.438;5.470;2023-02-01T17:04:39;14.90;79.30
13721;DHT22;6932;51.438;5.470;2023-02-01T17:07:06;14.90;79.30
13721;DHT22;6932;51.438;5.470;2023-02-01T17:09:38;14.90;79.30
13721;DHT22;6932;51.438;5.470;2023-02-01T17:12:04;14.90;79.20
13721;DHT22;6932;51.438;5.470;2023-02-01T17:14:34;15.00;79.30
13721;DHT22;6932;51.438;5.470;2023-02-01T17:17:04;15.00;79.30
13721;DHT22;6932;51.438;5.470;2023-02-01T17:19:30;15.00;79.30
13721;DHT22;6932;51.438;5.470;2023-02-01T17:21:57;14.90;79.30
13721;DHT22;6932;51.438;5.470;2023-02-01T17:24:29;15.00;79.30
13721;DHT22;6932;51.438;5.470;2023-02-01T17:26:56;15.00;79.20
13721;DHT22;6932;51.438;5.470;2023-02-01T17:29:24;15.00;79.20
13721;DHT22;6932;51.438;5.470;2023-02-01T17:31:53;15.00;79.20
13721;DHT22;6932;51.438;5.470;2023-02-01T17:34:20;15.00;79.20
13721;DHT22;6932;51.438;5.470;2023-02-01T17:36:47;15.00;79.20
13721;DHT22;6932;51.438;5.470;2023-02-01T17:39:15;15.00;79.20
13721;DHT22;6932;51.438;5.470;2023-02-01T17:42:00;15.00;79.20
13721;DHT22;6932;51.438;5.470;2023-02-01T17:44:26;15.00;79.20
13721;DHT22;6932;51.438;5.470;2023-02-01T17:46:52;15.00;79.20
13721;DHT22;6932;51.438;5.470;2023-02-01T17:49:18;15.00;79.20
13721;DHT22;6932;51.438;5.470;2023-02-01T17:51:43;15.00;79.20
13721;DHT22;6932;51.438;5.470;2023-02-01T17:54:12;15.00;79.20
13721;DHT22;6932;51.438;5.470;2023-02-01T17:56:38;15.00;79.30
13721;DHT22;6932;51.438;5.470;2023-02-01T17:59:04;15.00;79.20
13721;DHT22;6932;51.438;5.470;2023-02-01T18:01:30;15.00;79.30
13721;DHT22;6932;51.438;5.470;2023-02-01T18:03:56;15.00;79.40
13721;DHT22;6932;51.438;5.470;2023-02-01T18:06:23;15.00;79.40
13721;DHT22;6932;51.438;5.470;2023-02-01T18:08:55;15.00;79.40
13721;DHT22;6932;51.438;5.470;2023-02-01T18:11:23;15.00;79.50
13721;DHT22;6932;51.438;5.470;2023-02-01T18:13:51;15.00;79.50
13721;DHT22;6932;51.438;5.470;2023-02-01T18:16:23;15.00;79.50
13721;DHT22;6932;51.438;5.470;2023-02-01T18:18:50;15.00;79.60
13721;DHT22;6932;51.438;5.470;2023-02-01T18:21:19;15.00;79.60
13721;DHT22;6932;51.438;5.470;2023-02-01T18:23:47;15.00;79.60
13721;DHT22;6932;51.438;5.470;2023-02-01T18:26:15;15.00;79.70
13721;DHT22;6932;51.438;5.470;2023-02-01T18:28:42;15.00;79.70
13721;DHT22;6932;51.438;5.470;2023-02-01T18:31:26;15.00;79.70
13721;DHT22;6932;51.438;5.470;2023-02-01T18:33:55;14.90;79.80
13721;DHT22;6932;51.438;5.470;2023-02-01T18:36:23;15.00;79.80
13721;DHT22;6932;51.438;5.470;2023-02-01T18:38:50;15.00;79.80
13721;DHT22;6932;51.438;5.470;2023-02-01T18:41:19;15.00;79.90
13721;DHT22;6932;51.438;5.470;2023-02-01T18:43:47;15.00;79.90
13721;DHT22;6932;51.438;5.470;2023-02-01T18:46:15;15.00;80.00
13721;DHT22;6932;51.438;5.470;2023-02-01T18:48:42;15.00;80.00
13721;DHT22;6932;51.438;5.470;2023-02-01T18:51:13;15.00;80.00
13721;DHT22;6932;51.438;5.470;2023-02-01T18:53:44;15.00;80.10
13721;DHT22;6932;51.438;5.470;2023-02-01T18:56:11;15.00;80.10
13721;DHT22;6932;51.438;5.470;2023-02-01T18:58:39;15.00;80.10
13721;DHT22;6932;51.438;5.470;2023-02-01T19:01:12;15.10;80.20
13721;DHT22;6932;51.438;5.470;2023-02-01T19:03:40;15.00;80.20
13721;DHT22;6932;51.438;5.470;2023-02-01T19:06:07;15.10;80.30
13721;DHT22;6932;51.438;5.470;2023-02-01T19:08:33;15.10;80.20
13721;DHT22;6932;51.438;5.470;2023-02-01T19:10:59;15.10;80.20
13721;DHT22;6932;51.438;5.470;2023-02-01T19:13:29;15.10;80.30
13721;DHT22;6932;51.438;5.470;2023-02-01T19:15:56;15.00;80.30